sensor_id;sensor_type;location;lat;lon;timestamp;P1;durP1;ratioP1;P2;durP2;ratioP2
12896;SDS011;6516;35.028;32.372;2024-02-21T00:01:03;11.48;;;5.88;;
12896;SDS011;6516;35.028;32.372;2024-02-21T00:03:31;10.85;;;6.25;;
12896;SDS011;6516;35.028;32.372;2024-02-21T00:05:59;11.23;;;6.30;;
12896;SDS011;6516;35.028;32.372;2024-02-21T00:08:26;10.67;;;6.33;;
12896;SDS011;6516;35.028;32.372;2024-02-21T00:10:54;10.38;;;6.30;;
12896;SDS011;6516;35.028;32.372;2024-02-21T00:13:22;11.45;;;6.35;;
12896;SDS011;6516;35.028;32.372;2024-02-21T00:15:50;10.55;;;6.13;;
12896;SDS011;6516;35.028;32.372;2024-02-21T00:18:19;11.30;;;6.20;;
12896;SDS011;6516;35.028;32.372;2024-02-21T00:20:47;11.27;;;6.07;;
12896;SDS011;6516;35.028;32.372;2024-02-21T00:23:15;12.23;;;6.80;;
12896;SDS011;6516;35.028;32.372;2024-02-21T00:25:48;10.57;;;5.95;;
12896;SDS011;6516;35.028;32.372;2024-02-21T00:28:16;12.10;;;6.35;;
12896;SDS011;6516;35.028;32.372;2024-02-21T00:30:44;12.25;;;6.65;;
12896;SDS011;6516;35.028;32.372;2024-02-21T00:33:13;10.67;;;6.20;;
12896;SDS011;6516;35.028;32.372;2024-02-21T00:35:42;10.40;;;5.97;;
12896;SDS011;6516;35.028;32.372;2024-02-21T00:38:10;12.23;;;6.20;;
12896;SDS011;6516;35.028;32.372;2024-02-21T00:40:37;10.75;;;5.97;;
12896;SDS011;6516;35.028;32.372;2024-02-21T00:43:05;11.20;;;6.38;;
12896;SDS011;6516;35.028;32.372;2024-02-21T00:45:33;9.93;;;5.90;;
12896;SDS011;6516;35.028;32.372;2024-02-21T00:48:01;10.60;;;6.00;;
12896;SDS011;6516;35.028;32.372;2024-02-21T00:50:29;11.23;;;6.57;;
12896;SDS011;6516;35.028;32.372;2024-02-21T00:52:58;11.93;;;6.88;;
12896;SDS011;6516;35.028;32.372;2024-02-21T00:55:26;11.35;;;6.78;;
12896;SDS011;6516;35.028;32.372;2024-02-21T00:57:54;11.20;;;5.90;;
12896;SDS011;6516;35.028;32.372;2024-02-21T01:00:22;10.82;;;6.15;;
12896;SDS011;6516;35.028;32.372;2024-02-21T01:02:50;11.15;;;6.35;;
12896;SDS011;6516;35.028;32.372;2024-02-21T01:05:17;10.80;;;6.20;;
12896;SDS011;6516;35.028;32.372;2024-02-21T01:07:45;11.35;;;6.35;;
12896;SDS011;6516;35.028;32.372;2024-02-21T01:10:15;9.87;;;5.93;;
12896;SDS011;6516;35.028;32.372;2024-02-21T01:12:42;9.95;;;5.80;;
12896;SDS011;6516;35.028;32.372;2024-02-21T01:15:10;11.27;;;6.50;;
12896;SDS011;6516;35.028;32.372;2024-02-21T01:17:38;11.38;;;6.10;;
12896;SDS011;6516;35.028;32.372;2024-02-21T01:20:07;10.30;;;6.00;;
12896;SDS011;6516;35.028;32.372;2024-02-21T01:22:36;11.37;;;5.70;;
12896;SDS011;6516;35.028;32.372;2024-02-21T01:25:04;10.25;;;6.13;;
12896;SDS011;6516;35.028;32.372;2024-02-21T01:27:34;10.77;;;6.45;;
12896;SDS011;6516;35.028;32.372;2024-02-21T01:30:02;11.52;;;6.30;;
12896;SDS011;6516;35.028;32.372;2024-02-21T01:32:31;10.35;;;6.13;;
12896;SDS011;6516;35.028;32.372;2024-02-21T01:34:58;11.00;;;6.23;;
12896;SDS011;6516;35.028;32.372;2024-02-21T01:37:26;9.95;;;5.68;;
12896;SDS011;6516;35.028;32.372;2024-02-21T01:39:54;10.98;;;6.55;;
12896;SDS011;6516;35.028;32.372;2024-02-21T01:42:22;11.38;;;5.85;;
12896;SDS011;6516;35.028;32.372;2024-02-21T01:44:51;9.85;;;6.40;;
12896;SDS011;6516;35.028;32.372;2024-02-21T01:47:19;9.87;;;5.60;;
12896;SDS011;6516;35.028;32.372;2024-02-21T01:49:47;9.90;;;5.55;;
12896;SDS011;6516;35.028;32.372;2024-02-21T01:52:15;11.45;;;6.68;;
12896;SDS011;6516;35.028;32.372;2024-02-21T01:54:44;12.20;;;5.43;;
12896;SDS011;6516;35.028;32.372;2024-02-21T01:57:13;9.85;;;5.80;;
12896;SDS011;6516;35.028;32.372;2024-02-21T01:59:41;9.90;;;5.80;;
12896;SDS011;6516;35.028;32.372;2024-02-21T02:02:11;11.77;;;5.75;;
12896;SDS011;6516;35.028;32.372;2024-02-21T02:04:39;10.90;;;5.57;;
12896;SDS011;6516;35.028;32.372;2024-02-21T02:07:07;9.65;;;5.60;;
12896;SDS011;6516;35.028;32.372;2024-02-21T02:09:35;10.50;;;5.90;;
12896;SDS011;6516;35.028;32.372;2024-02-21T02:12:04;10.27;;;5.80;;
12896;SDS011;6516;35.028;32.372;2024-02-21T02:14:32;11.00;;;5.97;;
12896;SDS011;6516;35.028;32.372;2024-02-21T02:17:00;10.18;;;6.00;;
12896;SDS011;6516;35.028;32.372;2024-02-21T02:19:29;10.23;;;6.10;;
12896;SDS011;6516;35.028;32.372;2024-02-21T02:21:59;9.32;;;5.75;;
12896;SDS011;6516;35.028;32.372;2024-02-21T02:24:36;9.83;;;5.70;;
12896;SDS011;6516;35.028;32.372;2024-02-21T02:27:03;11.35;;;5.88;;
12896;SDS011;6516;35.028;32.372;2024-02-21T02:29:32;11.68;;;6.55;;
12896;SDS011;6516;35.028;32.372;2024-02-21T02:32:00;9.65;;;5.90;;
12896;SDS011;6516;35.028;32.372;2024-02-21T02:34:27;9.75;;;6.00;;
12896;SDS011;6516;35.028;32.372;2024-02-21T02:36:58;10.00;;;5.90;;
12896;SDS011;6516;35.028;32.372;2024-02-21T02:39:26;11.10;;;6.07;;
12896;SDS011;6516;35.028;32.372;2024-02-21T02:41:55;10.30;;;5.93;;
12896;SDS011;6516;35.028;32.372;2024-02-21T02:44:23;11.85;;;6.13;;
12896;SDS011;6516;35.028;32.372;2024-02-21T02:46:55;9.98;;;6.10;;
12896;SDS011;6516;35.028;32.372;2024-02-21T02:49:23;11.57;;;6.07;;
12896;SDS011;6516;35.028;32.372;2024-02-21T02:51:50;10.98;;;6.25;;
12896;SDS011;6516;35.028;32.372;2024-02-21T02:54:18;10.48;;;6.07;;
12896;SDS011;6516;35.028;32.372;2024-02-21T02:56:46;9.82;;;6.10;;
12896;SDS011;6516;35.028;32.372;2024-02-21T02:59:15;11.32;;;5.90;;
12896;SDS011;6516;35.028;32.372;2024-02-21T03:01:43;11.50;;;6.47;;
12896;SDS011;6516;35.028;32.372;2024-02-21T03:04:11;12.02;;;6.07;;
12896;SDS011;6516;35.028;32.372;2024-02-21T03:06:38;9.18;;;5.47;;
12896;SDS011;6516;35.028;32.372;2024-02-21T03:09:06;11.18;;;5.97;;
12896;SDS011;6516;35.028;32.372;2024-02-21T03:11:35;11.73;;;6.13;;
12896;SDS011;6516;35.028;32.372;2024-02-21T03:14:06;9.57;;;5.87;;
12896;SDS011;6516;35.028;32.372;2024-02-21T03:16:35;9.63;;;5.88;;
12896;SDS011;6516;35.028;32.372;2024-02-21T03:19:03;9.88;;;6.05;;
12896;SDS011;6516;35.028;32.372;2024-02-21T03:21:30;11.50;;;5.90;;
12896;SDS011;6516;35.028;32.372;2024-02-21T03:23:58;10.05;;;5.90;;
12896;SDS011;6516;35.028;32.372;2024-02-21T03:26:26;11.27;;;6.00;;
12896;SDS011;6516;35.028;32.372;2024-02-21T03:28:53;11.48;;;6.22;;
12896;SDS011;6516;35.028;32.372;2024-02-21T03:31:21;10.98;;;6.13;;
12896;SDS011;6516;35.028;32.372;2024-02-21T03:33:51;10.27;;;5.28;;
12896;SDS011;6516;35.028;32.372;2024-02-21T03:36:19;10.13;;;5.72;;
12896;SDS011;6516;35.028;32.372;2024-02-21T03:38:46;10.43;;;5.87;;
12896;SDS011;6516;35.028;32.372;2024-02-21T03:41:14;10.35;;;6.10;;
12896;SDS011;6516;35.028;32.372;2024-02-21T03:43:42;11.93;;;5.82;;
12896;SDS011;6516;35.028;32.372;2024-02-21T03:46:10;10.30;;;6.03;;
12896;SDS011;6516;35.028;32.372;2024-02-21T03:48:38;10.57;;;6.07;;
12896;SDS011;6516;35.028;32.372;2024-02-21T03:51:07;11.07;;;5.73;;
12896;SDS011;6516;35.028;32.372;2024-02-21T03:53:35;10.80;;;5.78;;
12896;SDS011;6516;35.028;32.372;2024-02-21T03:56:03;10.25;;;6.05;;
12896;SDS011;6516;35.028;32.372;2024-02-21T03:58:32;10.10;;;6.05;;
12896;SDS011;6516;35.028;32.372;2024-02-21T04:01:00;10.02;;;6.13;;
12896;SDS011;6516;35.028;32.372;2024-02-21T04:03:29;10.73;;;6.43;;
12896;SDS011;6516;35.028;32.372;2024-02-21T04:05:57;10.65;;;5.97;;
12896;SDS011;6516;35.028;32.372;2024-02-21T04:08:27;10.88;;;5.93;;
12896;SDS011;6516;35.028;32.372;2024-02-21T04:10:54;9.52;;;5.68;;
12896;SDS011;6516;35.028;32.372;2024-02-21T04:13:22;11.68;;;6.40;;
12896;SDS011;6516;35.028;32.372;2024-02-21T04:15:51;11.70;;;5.87;;
12896;SDS011;6516;35.028;32.372;2024-02-21T04:18:18;10.57;;;6.15;;
12896;SDS011;6516;35.028;32.372;2024-02-21T04:20:47;12.05;;;6.63;;
12896;SDS011;6516;35.028;32.372;2024-02-21T04:23:14;10.18;;;6.07;;
12896;SDS011;6516;35.028;32.372;2024-02-21T04:25:44;10.85;;;6.10;;
12896;SDS011;6516;35.028;32.372;2024-02-21T04:28:11;11.03;;;6.53;;
12896;SDS011;6516;35.028;32.372;2024-02-21T04:30:39;12.02;;;6.20;;
12896;SDS011;6516;35.028;32.372;2024-02-21T04:33:07;12.40;;;6.70;;
12896;SDS011;6516;35.028;32.372;2024-02-21T04:35:35;10.63;;;6.45;;
12896;SDS011;6516;35.028;32.372;2024-02-21T04:38:04;12.85;;;6.97;;
12896;SDS011;6516;35.028;32.372;2024-02-21T04:40:32;10.37;;;6.30;;
12896;SDS011;6516;35.028;32.372;2024-02-21T04:43:01;10.02;;;6.15;;
12896;SDS011;6516;35.028;32.372;2024-02-21T04:45:30;11.10;;;5.90;;
12896;SDS011;6516;35.028;32.372;2024-02-21T04:47:57;10.68;;;6.20;;
12896;SDS011;6516;35.028;32.372;2024-02-21T04:50:25;10.38;;;6.25;;
12896;SDS011;6516;35.028;32.372;2024-02-21T04:52:53;9.20;;;5.67;;
12896;SDS011;6516;35.028;32.372;2024-02-21T04:55:21;10.45;;;5.68;;
12896;SDS011;6516;35.028;32.372;2024-02-21T04:57:49;11.07;;;6.10;;
12896;SDS011;6516;35.028;32.372;2024-02-21T05:00:18;12.32;;;5.80;;
12896;SDS011;6516;35.028;32.372;2024-02-21T05:02:47;9.85;;;5.57;;
12896;SDS011;6516;35.028;32.372;2024-02-21T05:05:14;10.27;;;5.93;;
12896;SDS011;6516;35.028;32.372;2024-02-21T05:07:42;10.52;;;5.60;;
12896;SDS011;6516;35.028;32.372;2024-02-21T05:10:10;10.05;;;5.53;;
12896;SDS011;6516;35.028;32.372;2024-02-21T05:12:38;10.55;;;5.50;;
12896;SDS011;6516;35.028;32.372;2024-02-21T05:15:06;9.00;;;5.35;;
12896;SDS011;6516;35.028;32.372;2024-02-21T05:17:36;8.53;;;5.20;;
12896;SDS011;6516;35.028;32.372;2024-02-21T05:20:05;9.30;;;5.85;;
12896;SDS011;6516;35.028;32.372;2024-02-21T05:22:34;10.25;;;5.57;;
12896;SDS011;6516;35.028;32.372;2024-02-21T05:25:01;11.05;;;5.68;;
12896;SDS011;6516;35.028;32.372;2024-02-21T05:27:29;9.23;;;5.45;;
12896;SDS011;6516;35.028;32.372;2024-02-21T05:29:57;10.20;;;5.60;;
12896;SDS011;6516;35.028;32.372;2024-02-21T05:32:26;10.05;;;5.50;;
12896;SDS011;6516;35.028;32.372;2024-02-21T05:34:55;9.75;;;5.45;;
12896;SDS011;6516;35.028;32.372;2024-02-21T05:37:23;11.07;;;5.63;;
12896;SDS011;6516;35.028;32.372;2024-02-21T05:39:51;9.52;;;5.45;;
12896;SDS011;6516;35.028;32.372;2024-02-21T05:42:19;10.13;;;5.67;;
12896;SDS011;6516;35.028;32.372;2024-02-21T05:44:47;10.07;;;6.38;;
12896;SDS011;6516;35.028;32.372;2024-02-21T05:47:14;9.32;;;5.78;;
12896;SDS011;6516;35.028;32.372;2024-02-21T05:49:42;8.30;;;5.05;;
12896;SDS011;6516;35.028;32.372;2024-02-21T05:52:11;9.70;;;5.07;;
12896;SDS011;6516;35.028;32.372;2024-02-21T05:54:39;8.67;;;5.20;;
12896;SDS011;6516;35.028;32.372;2024-02-21T05:57:07;9.13;;;5.15;;
12896;SDS011;6516;35.028;32.372;2024-02-21T05:59:37;8.93;;;5.60;;
12896;SDS011;6516;35.028;32.372;2024-02-21T06:02:07;8.85;;;5.10;;
12896;SDS011;6516;35.028;32.372;2024-02-21T06:04:35;8.38;;;4.93;;
12896;SDS011;6516;35.028;32.372;2024-02-21T06:07:03;8.53;;;5.27;;
12896;SDS011;6516;35.028;32.372;2024-02-21T06:09:32;7.82;;;4.93;;
12896;SDS011;6516;35.028;32.372;2024-02-21T06:12:00;9.52;;;5.22;;
12896;SDS011;6516;35.028;32.372;2024-02-21T06:14:28;7.95;;;5.00;;
12896;SDS011;6516;35.028;32.372;2024-02-21T06:16:56;7.55;;;4.57;;
12896;SDS011;6516;35.028;32.372;2024-02-21T06:19:23;7.53;;;4.70;;
12896;SDS011;6516;35.028;32.372;2024-02-21T06:21:51;6.93;;;4.18;;
12896;SDS011;6516;35.028;32.372;2024-02-21T06:24:19;7.57;;;4.13;;
12896;SDS011;6516;35.028;32.372;2024-02-21T06:26:48;7.10;;;4.30;;
12896;SDS011;6516;35.028;32.372;2024-02-21T06:29:16;7.15;;;4.30;;
12896;SDS011;6516;35.028;32.372;2024-02-21T06:31:44;6.90;;;4.00;;
12896;SDS011;6516;35.028;32.372;2024-02-21T06:34:12;6.25;;;3.58;;
12896;SDS011;6516;35.028;32.372;2024-02-21T06:36:39;6.90;;;4.10;;
12896;SDS011;6516;35.028;32.372;2024-02-21T06:39:07;5.78;;;3.58;;
12896;SDS011;6516;35.028;32.372;2024-02-21T06:41:36;5.80;;;3.40;;
12896;SDS011;6516;35.028;32.372;2024-02-21T06:44:07;8.00;;;3.83;;
12896;SDS011;6516;35.028;32.372;2024-02-21T06:46:34;5.47;;;3.40;;
12896;SDS011;6516;35.028;32.372;2024-02-21T06:49:05;5.50;;;3.17;;
12896;SDS011;6516;35.028;32.372;2024-02-21T06:51:33;6.55;;;3.88;;
12896;SDS011;6516;35.028;32.372;2024-02-21T06:54:02;6.85;;;4.10;;
12896;SDS011;6516;35.028;32.372;2024-02-21T06:56:30;6.63;;;3.37;;
12896;SDS011;6516;35.028;32.372;2024-02-21T06:58:58;6.07;;;3.58;;
12896;SDS011;6516;35.028;32.372;2024-02-21T07:01:27;6.85;;;3.70;;
12896;SDS011;6516;35.028;32.372;2024-02-21T07:03:55;7.22;;;3.45;;
12896;SDS011;6516;35.028;32.372;2024-02-21T07:06:23;6.13;;;3.30;;
12896;SDS011;6516;35.028;32.372;2024-02-21T07:08:50;6.97;;;3.27;;
12896;SDS011;6516;35.028;32.372;2024-02-21T07:11:18;5.68;;;3.22;;
12896;SDS011;6516;35.028;32.372;2024-02-21T07:13:46;6.50;;;3.83;;
12896;SDS011;6516;35.028;32.372;2024-02-21T07:16:14;5.95;;;3.35;;
12896;SDS011;6516;35.028;32.372;2024-02-21T07:18:43;6.72;;;3.50;;
12896;SDS011;6516;35.028;32.372;2024-02-21T07:21:11;6.03;;;3.30;;
12896;SDS011;6516;35.028;32.372;2024-02-21T07:23:40;6.88;;;3.53;;
12896;SDS011;6516;35.028;32.372;2024-02-21T07:26:08;6.15;;;3.30;;
12896;SDS011;6516;35.028;32.372;2024-02-21T07:28:36;5.90;;;3.78;;
12896;SDS011;6516;35.028;32.372;2024-02-21T07:31:04;6.13;;;3.42;;
12896;SDS011;6516;35.028;32.372;2024-02-21T07:33:31;5.77;;;3.20;;
12896;SDS011;6516;35.028;32.372;2024-02-21T07:36:05;6.30;;;3.50;;
12896;SDS011;6516;35.028;32.372;2024-02-21T07:38:33;6.72;;;3.40;;
12896;SDS011;6516;35.028;32.372;2024-02-21T07:41:01;5.65;;;3.45;;
12896;SDS011;6516;35.028;32.372;2024-02-21T07:43:29;6.40;;;3.60;;
12896;SDS011;6516;35.028;32.372;2024-02-21T07:45:57;7.03;;;3.70;;
12896;SDS011;6516;35.028;32.372;2024-02-21T07:48:25;6.32;;;3.38;;
12896;SDS011;6516;35.028;32.372;2024-02-21T07:50:53;5.85;;;3.42;;
12896;SDS011;6516;35.028;32.372;2024-02-21T07:53:22;5.95;;;3.35;;
12896;SDS011;6516;35.028;32.372;2024-02-21T07:55:50;7.28;;;3.50;;
12896;SDS011;6516;35.028;32.372;2024-02-21T07:58:17;6.10;;;3.50;;
12896;SDS011;6516;35.028;32.372;2024-02-21T08:00:45;5.47;;;3.05;;
12896;SDS011;6516;35.028;32.372;2024-02-21T08:03:13;5.97;;;3.30;;
12896;SDS011;6516;35.028;32.372;2024-02-21T08:05:43;6.38;;;3.40;;
12896;SDS011;6516;35.028;32.372;2024-02-21T08:08:10;5.97;;;3.38;;
12896;SDS011;6516;35.028;32.372;2024-02-21T08:10:45;5.77;;;3.50;;
12896;SDS011;6516;35.028;32.372;2024-02-21T08:13:12;6.18;;;3.30;;
12896;SDS011;6516;35.028;32.372;2024-02-21T08:15:40;5.68;;;3.15;;
12896;SDS011;6516;35.028;32.372;2024-02-21T08:18:08;5.65;;;3.40;;
12896;SDS011;6516;35.028;32.372;2024-02-21T08:20:36;5.57;;;3.63;;
12896;SDS011;6516;35.028;32.372;2024-02-21T08:23:04;6.47;;;3.50;;
12896;SDS011;6516;35.028;32.372;2024-02-21T08:25:32;5.15;;;3.30;;
12896;SDS011;6516;35.028;32.372;2024-02-21T08:28:01;6.78;;;3.33;;
12896;SDS011;6516;35.028;32.372;2024-02-21T08:30:29;7.07;;;3.60;;
12896;SDS011;6516;35.028;32.372;2024-02-21T08:32:56;5.50;;;3.20;;
12896;SDS011;6516;35.028;32.372;2024-02-21T08:35:24;6.90;;;3.70;;
12896;SDS011;6516;35.028;32.372;2024-02-21T08:37:52;6.72;;;3.50;;
12896;SDS011;6516;35.028;32.372;2024-02-21T08:40:20;6.68;;;3.58;;
12896;SDS011;6516;35.028;32.372;2024-02-21T08:42:47;5.25;;;3.20;;
12896;SDS011;6516;35.028;32.372;2024-02-21T08:45:17;7.97;;;3.40;;
12896;SDS011;6516;35.028;32.372;2024-02-21T08:47:45;6.07;;;3.40;;
12896;SDS011;6516;35.028;32.372;2024-02-21T08:50:12;6.55;;;3.47;;
12896;SDS011;6516;35.028;32.372;2024-02-21T08:52:40;6.13;;;3.40;;
12896;SDS011;6516;35.028;32.372;2024-02-21T08:55:08;6.80;;;3.42;;
12896;SDS011;6516;35.028;32.372;2024-02-21T08:57:36;5.82;;;3.70;;
12896;SDS011;6516;35.028;32.372;2024-02-21T09:00:05;5.13;;;3.13;;
12896;SDS011;6516;35.028;32.372;2024-02-21T09:02:39;6.78;;;3.30;;
12896;SDS011;6516;35.028;32.372;2024-02-21T09:05:08;5.20;;;3.28;;
12896;SDS011;6516;35.028;32.372;2024-02-21T09:07:36;5.55;;;3.20;;
12896;SDS011;6516;35.028;32.372;2024-02-21T09:10:04;5.57;;;3.30;;
12896;SDS011;6516;35.028;32.372;2024-02-21T09:12:33;6.60;;;3.60;;
12896;SDS011;6516;35.028;32.372;2024-02-21T09:15:01;5.68;;;3.30;;
12896;SDS011;6516;35.028;32.372;2024-02-21T09:17:29;6.13;;;3.47;;
12896;SDS011;6516;35.028;32.372;2024-02-21T09:19:58;6.95;;;4.00;;
12896;SDS011;6516;35.028;32.372;2024-02-21T09:22:28;6.13;;;3.50;;
12896;SDS011;6516;35.028;32.372;2024-02-21T09:24:56;5.30;;;3.60;;
12896;SDS011;6516;35.028;32.372;2024-02-21T09:27:24;5.70;;;3.70;;
12896;SDS011;6516;35.028;32.372;2024-02-21T09:29:52;8.68;;;3.65;;
12896;SDS011;6516;35.028;32.372;2024-02-21T09:32:20;5.95;;;3.13;;
12896;SDS011;6516;35.028;32.372;2024-02-21T09:34:48;8.18;;;3.78;;
12896;SDS011;6516;35.028;32.372;2024-02-21T09:37:17;5.50;;;3.43;;
12896;SDS011;6516;35.028;32.372;2024-02-21T09:39:44;5.22;;;3.22;;
12896;SDS011;6516;35.028;32.372;2024-02-21T09:42:13;6.65;;;3.80;;
12896;SDS011;6516;35.028;32.372;2024-02-21T09:44:48;6.28;;;3.60;;
12896;SDS011;6516;35.028;32.372;2024-02-21T09:47:19;5.75;;;3.38;;
12896;SDS011;6516;35.028;32.372;2024-02-21T09:49:51;7.73;;;3.37;;
12896;SDS011;6516;35.028;32.372;2024-02-21T09:52:23;6.10;;;3.38;;
12896;SDS011;6516;35.028;32.372;2024-02-21T09:54:53;6.75;;;3.80;;
12896;SDS011;6516;35.028;32.372;2024-02-21T09:57:22;6.40;;;3.55;;
12896;SDS011;6516;35.028;32.372;2024-02-21T09:59:51;6.55;;;3.85;;
12896;SDS011;6516;35.028;32.372;2024-02-21T10:02:19;6.13;;;3.40;;
12896;SDS011;6516;35.028;32.372;2024-02-21T10:04:47;5.38;;;3.47;;
12896;SDS011;6516;35.028;32.372;2024-02-21T10:07:15;6.20;;;4.05;;
12896;SDS011;6516;35.028;32.372;2024-02-21T10:09:49;7.68;;;4.03;;
12896;SDS011;6516;35.028;32.372;2024-02-21T10:12:28;7.05;;;3.72;;
12896;SDS011;6516;35.028;32.372;2024-02-21T10:15:02;6.27;;;3.20;;
12896;SDS011;6516;35.028;32.372;2024-02-21T10:17:31;7.75;;;4.10;;
12896;SDS011;6516;35.028;32.372;2024-02-21T10:20:06;6.90;;;3.97;;
12896;SDS011;6516;35.028;32.372;2024-02-21T10:22:35;6.00;;;3.72;;
12896;SDS011;6516;35.028;32.372;2024-02-21T10:25:10;5.53;;;3.40;;
12896;SDS011;6516;35.028;32.372;2024-02-21T10:27:39;6.60;;;3.77;;
12896;SDS011;6516;35.028;32.372;2024-02-21T10:30:08;7.18;;;3.85;;
12896;SDS011;6516;35.028;32.372;2024-02-21T10:32:48;5.82;;;4.05;;
12896;SDS011;6516;35.028;32.372;2024-02-21T10:35:25;5.93;;;3.85;;
12896;SDS011;6516;35.028;32.372;2024-02-21T10:37:54;6.97;;;3.78;;
12896;SDS011;6516;35.028;32.372;2024-02-21T10:40:25;6.87;;;3.73;;
12896;SDS011;6516;35.028;32.372;2024-02-21T10:42:56;5.88;;;3.70;;
12896;SDS011;6516;35.028;32.372;2024-02-21T10:45:30;6.72;;;4.00;;
12896;SDS011;6516;35.028;32.372;2024-02-21T10:48:02;6.47;;;3.97;;
12896;SDS011;6516;35.028;32.372;2024-02-21T10:50:50;6.60;;;4.25;;
12896;SDS011;6516;35.028;32.372;2024-02-21T10:53:28;6.47;;;3.80;;
12896;SDS011;6516;35.028;32.372;2024-02-21T10:56:10;8.23;;;3.92;;
12896;SDS011;6516;35.028;32.372;2024-02-21T10:58:50;6.35;;;4.05;;
12896;SDS011;6516;35.028;32.372;2024-02-21T11:01:18;7.13;;;4.20;;
12896;SDS011;6516;35.028;32.372;2024-02-21T11:03:46;7.65;;;4.07;;
12896;SDS011;6516;35.028;32.372;2024-02-21T11:06:18;5.90;;;3.87;;
12896;SDS011;6516;35.028;32.372;2024-02-21T11:08:47;7.60;;;4.25;;
12896;SDS011;6516;35.028;32.372;2024-02-21T11:11:29;5.63;;;3.90;;
12896;SDS011;6516;35.028;32.372;2024-02-21T11:14:03;6.70;;;3.92;;
12896;SDS011;6516;35.028;32.372;2024-02-21T11:16:36;8.40;;;4.10;;
12896;SDS011;6516;35.028;32.372;2024-02-21T11:19:06;6.13;;;3.83;;
12896;SDS011;6516;35.028;32.372;2024-02-21T11:21:35;8.48;;;3.90;;
12896;SDS011;6516;35.028;32.372;2024-02-21T11:24:03;7.60;;;4.18;;
12896;SDS011;6516;35.028;32.372;2024-02-21T11:26:36;7.07;;;4.00;;
12896;SDS011;6516;35.028;32.372;2024-02-21T11:29:04;5.70;;;4.00;;
12896;SDS011;6516;35.028;32.372;2024-02-21T11:31:40;6.50;;;4.10;;
12896;SDS011;6516;35.028;32.372;2024-02-21T11:34:11;6.05;;;3.88;;
12896;SDS011;6516;35.028;32.372;2024-02-21T11:36:48;6.85;;;4.20;;
12896;SDS011;6516;35.028;32.372;2024-02-21T11:39:18;8.15;;;4.22;;
12896;SDS011;6516;35.028;32.372;2024-02-21T11:42:04;8.65;;;4.10;;
12896;SDS011;6516;35.028;32.372;2024-02-21T11:44:34;5.87;;;3.77;;
12896;SDS011;6516;35.028;32.372;2024-02-21T11:47:05;6.90;;;4.20;;
12896;SDS011;6516;35.028;32.372;2024-02-21T11:49:36;6.95;;;4.18;;
12896;SDS011;6516;35.028;32.372;2024-02-21T11:52:05;6.45;;;4.47;;
12896;SDS011;6516;35.028;32.372;2024-02-21T11:54:33;6.63;;;4.15;;
12896;SDS011;6516;35.028;32.372;2024-02-21T11:57:01;7.47;;;4.30;;
12896;SDS011;6516;35.028;32.372;2024-02-21T11:59:31;6.13;;;3.90;;
12896;SDS011;6516;35.028;32.372;2024-02-21T12:02:00;6.63;;;3.88;;
12896;SDS011;6516;35.028;32.372;2024-02-21T12:04:28;6.10;;;4.07;;
12896;SDS011;6516;35.028;32.372;2024-02-21T12:06:57;7.03;;;4.22;;
12896;SDS011;6516;35.028;32.372;2024-02-21T12:09:25;6.23;;;3.97;;
12896;SDS011;6516;35.028;32.372;2024-02-21T12:11:57;6.75;;;4.13;;
12896;SDS011;6516;35.028;32.372;2024-02-21T12:14:27;6.68;;;4.40;;
12896;SDS011;6516;35.028;32.372;2024-02-21T12:16:56;6.95;;;4.22;;
12896;SDS011;6516;35.028;32.372;2024-02-21T12:19:24;6.43;;;4.22;;
12896;SDS011;6516;35.028;32.372;2024-02-21T12:21:53;5.80;;;4.03;;
12896;SDS011;6516;35.028;32.372;2024-02-21T12:24:23;6.53;;;4.40;;
12896;SDS011;6516;35.028;32.372;2024-02-21T12:26:52;7.95;;;4.72;;
12896;SDS011;6516;35.028;32.372;2024-02-21T12:29:20;7.15;;;4.68;;
12896;SDS011;6516;35.028;32.372;2024-02-21T12:31:51;7.25;;;4.28;;
12896;SDS011;6516;35.028;32.372;2024-02-21T12:34:23;7.77;;;4.63;;
12896;SDS011;6516;35.028;32.372;2024-02-21T12:36:52;7.50;;;4.65;;
12896;SDS011;6516;35.028;32.372;2024-02-21T12:39:19;6.25;;;4.40;;
12896;SDS011;6516;35.028;32.372;2024-02-21T12:41:47;6.47;;;4.22;;
12896;SDS011;6516;35.028;32.372;2024-02-21T12:44:15;7.05;;;4.22;;
12896;SDS011;6516;35.028;32.372;2024-02-21T12:46:43;9.23;;;4.60;;
12896;SDS011;6516;35.028;32.372;2024-02-21T12:49:12;7.35;;;4.20;;
12896;SDS011;6516;35.028;32.372;2024-02-21T12:51:41;7.63;;;4.78;;
12896;SDS011;6516;35.028;32.372;2024-02-21T12:54:09;5.93;;;4.07;;
12896;SDS011;6516;35.028;32.372;2024-02-21T12:56:37;6.85;;;4.22;;
12896;SDS011;6516;35.028;32.372;2024-02-21T12:59:05;7.57;;;4.67;;
12896;SDS011;6516;35.028;32.372;2024-02-21T13:01:34;8.05;;;4.40;;
12896;SDS011;6516;35.028;32.372;2024-02-21T13:04:02;7.13;;;4.40;;
12896;SDS011;6516;35.028;32.372;2024-02-21T13:06:32;11.02;;;5.40;;
12896;SDS011;6516;35.028;32.372;2024-02-21T13:08:58;7.00;;;4.60;;
12896;SDS011;6516;35.028;32.372;2024-02-21T13:11:29;7.77;;;4.37;;
12896;SDS011;6516;35.028;32.372;2024-02-21T13:13:56;7.70;;;4.47;;
12896;SDS011;6516;35.028;32.372;2024-02-21T13:16:24;7.70;;;4.60;;
12896;SDS011;6516;35.028;32.372;2024-02-21T13:18:52;7.60;;;4.25;;
12896;SDS011;6516;35.028;32.372;2024-02-21T13:21:20;6.80;;;4.25;;
12896;SDS011;6516;35.028;32.372;2024-02-21T13:23:49;8.30;;;4.90;;
12896;SDS011;6516;35.028;32.372;2024-02-21T13:26:17;8.88;;;4.72;;
12896;SDS011;6516;35.028;32.372;2024-02-21T13:28:45;7.35;;;4.50;;
12896;SDS011;6516;35.028;32.372;2024-02-21T13:31:13;7.07;;;4.43;;
12896;SDS011;6516;35.028;32.372;2024-02-21T13:33:42;9.98;;;4.88;;
12896;SDS011;6516;35.028;32.372;2024-02-21T13:36:10;7.67;;;4.87;;
12896;SDS011;6516;35.028;32.372;2024-02-21T13:38:38;7.35;;;4.95;;
12896;SDS011;6516;35.028;32.372;2024-02-21T13:41:08;8.55;;;5.53;;
12896;SDS011;6516;35.028;32.372;2024-02-21T13:43:35;7.97;;;4.97;;
12896;SDS011;6516;35.028;32.372;2024-02-21T13:46:03;7.70;;;4.95;;
12896;SDS011;6516;35.028;32.372;2024-02-21T13:48:35;7.50;;;4.83;;
12896;SDS011;6516;35.028;32.372;2024-02-21T13:51:03;8.20;;;4.60;;
12896;SDS011;6516;35.028;32.372;2024-02-21T13:53:31;8.50;;;4.75;;
12896;SDS011;6516;35.028;32.372;2024-02-21T13:55:59;7.68;;;4.45;;
12896;SDS011;6516;35.028;32.372;2024-02-21T13:58:29;8.55;;;4.60;;
12896;SDS011;6516;35.028;32.372;2024-02-21T14:00:56;6.80;;;4.30;;
12896;SDS011;6516;35.028;32.372;2024-02-21T14:03:26;7.70;;;4.57;;
12896;SDS011;6516;35.028;32.372;2024-02-21T14:05:53;7.63;;;4.53;;
12896;SDS011;6516;35.028;32.372;2024-02-21T14:08:21;7.75;;;5.00;;
12896;SDS011;6516;35.028;32.372;2024-02-21T14:10:49;7.00;;;4.63;;
12896;SDS011;6516;35.028;32.372;2024-02-21T14:13:17;7.10;;;4.50;;
12896;SDS011;6516;35.028;32.372;2024-02-21T14:15:47;7.13;;;4.28;;
12896;SDS011;6516;35.028;32.372;2024-02-21T14:18:15;9.13;;;4.75;;
12896;SDS011;6516;35.028;32.372;2024-02-21T14:20:43;8.18;;;5.18;;
12896;SDS011;6516;35.028;32.372;2024-02-21T14:23:12;6.50;;;4.38;;
12896;SDS011;6516;35.028;32.372;2024-02-21T14:25:40;7.47;;;4.47;;
12896;SDS011;6516;35.028;32.372;2024-02-21T14:28:08;6.75;;;4.38;;
12896;SDS011;6516;35.028;32.372;2024-02-21T14:30:36;7.57;;;4.57;;
12896;SDS011;6516;35.028;32.372;2024-02-21T14:33:05;7.63;;;4.60;;
12896;SDS011;6516;35.028;32.372;2024-02-21T14:35:33;7.65;;;4.38;;
12896;SDS011;6516;35.028;32.372;2024-02-21T14:38:00;6.80;;;4.20;;
12896;SDS011;6516;35.028;32.372;2024-02-21T14:40:28;6.82;;;4.53;;
12896;SDS011;6516;35.028;32.372;2024-02-21T14:42:56;6.80;;;4.57;;
12896;SDS011;6516;35.028;32.372;2024-02-21T14:45:24;8.13;;;4.57;;
12896;SDS011;6516;35.028;32.372;2024-02-21T14:47:52;7.47;;;4.90;;
12896;SDS011;6516;35.028;32.372;2024-02-21T14:50:22;9.00;;;5.40;;
12896;SDS011;6516;35.028;32.372;2024-02-21T14:52:49;7.65;;;5.10;;